Tubize, Belgium
Current Conditions -  °F | °C
As of 11:25 PM on Friday 31 Oct 2014 (Local Time) from EBCV Reporting Station
Clear Clear  
Wind Chill: 59°   Ceiling: Unl
Heat Index: 59°   Visibility: 6mi
Dew Point: 52°   Wind: 10mph
Humidity: 77%   Direction: 170°S
Pressure: 30.12"   Gusts: NA
Location:  50.69°N, 4.2°E
Report Text: EBCV 312225Z AUTO 17009KT 9999 NCD 15/11 Q1020 BLU
Loading
Personal Weather Stations






























Interactive Weather Map
Tropical Storm Tracking
New forecast layout! Learn more

10-Day Weather Forecast

Advertisements
Track Severe Weather on mobile